Terminal Aerodrome Forecast
Issued by NWS Wilmington, OH

Home | Current Version | Previous Version | Text Only | Print | Product List | Glossary On
Versions: 1 2 3 4 5 6 7 8 9 10 11 12 13 14 15 16 17
000
FTUS41 KILN 212300
TAFDAY
TAF
KDAY 212337Z 2200/2224 11006KT P6SM BKN250
     FM221200 13007KT P6SM VCSH BKN020
     FM221700 13008KT P6SM BKN025
     FM222000 13009KT P6SM SCT025 BKN080=

USA.gov is the U.S. government's official web portal to all federal, state and local government web resources and services.